Accueil
METAR-TAF:

METAR-TAF

Aéroports :

Aéroport international d'Irkoutsk

Irkoutsk, Russie

latitude: 52-16N, longitude: 104-19E, altitude: 513 m

Observation

Le bulletin a été fait il y a 26 minutes, à 06:00 UTC
Vent 8 kt de ouest/nord-ouest
Température 20°C
Humidité 83%
Pression 1007 hPa
Visibilité 10 km ou plus
Nuages épars à une hauteur de 2000 ft, Cumulonimbus.

METAR: UIII 210600Z 29004MPS 9999 SCT020CB 20/17 Q1007 R30/60D NOSIG RMK QFE711/0948

Heure: 14:26 (06:26 UTC)

Prévision

Le bulletin a été fait il y a 1 heure et 26 minutes, à 05:00 UTC
Prévision valable du 21 à 06 UTC au 22 à 06 UTC
Vent 10 kt de ouest/nord-ouest
Visibilité 10 km ou plus
Nuages fragmentés à une hauteur de 1200 ft, Cumulonimbus.
Temporairement
du 21 à 06 UTC au 21 à 16 UTC
Vent 23 kt de direction variable
orage, pluie faible

TAF: UIII 210500Z 2106/2206 30005MPS 9999 BKN012CB TEMPO 2106/2116 VRB12MPS -TSRA

Observations et prévisions météorologiques de plus de 4000 aéroports (messages METAR et TAF).

Les stations disponibles sont représentées par des disques jaunes et rouges sur la carte.

Passer la souris dessus pour voir le nom de la station.

Cliquer dessus pour voir les observations et prévisions météorologiques.

Pour changer de carte: cliquez sur les boutons verts avec une croix noire pour zoomer, sur le bouton vert avec un tiret pour effectuer un zoom arrière, ou sur les flèches vertes pour les cartes adjacentes.


METAR-TAF: